sensor_id;sensor_type;location;lat;lon;timestamp;P1;durP1;ratioP1;P2;durP2;ratioP2
12120;SDS011;6124;59.460;17.908;2023-01-15T00:00:33;15.60;;;5.80;;
12120;SDS011;6124;59.460;17.908;2023-01-15T00:03:00;15.03;;;5.97;;
12120;SDS011;6124;59.460;17.908;2023-01-15T00:05:27;16.73;;;6.73;;
12120;SDS011;6124;59.460;17.908;2023-01-15T00:07:56;18.83;;;6.30;;
12120;SDS011;6124;59.460;17.908;2023-01-15T00:10:23;17.73;;;6.67;;
12120;SDS011;6124;59.460;17.908;2023-01-15T00:12:51;19.03;;;7.27;;
12120;SDS011;6124;59.460;17.908;2023-01-15T00:15:18;15.50;;;5.33;;
12120;SDS011;6124;59.460;17.908;2023-01-15T00:17:45;16.00;;;5.70;;
12120;SDS011;6124;59.460;17.908;2023-01-15T00:20:13;17.03;;;5.60;;
12120;SDS011;6124;59.460;17.908;2023-01-15T00:22:40;12.40;;;4.97;;
12120;SDS011;6124;59.460;17.908;2023-01-15T00:25:09;14.47;;;5.47;;
12120;SDS011;6124;59.460;17.908;2023-01-15T00:27:54;15.93;;;5.63;;
12120;SDS011;6124;59.460;17.908;2023-01-15T00:30:21;16.57;;;5.70;;
12120;SDS011;6124;59.460;17.908;2023-01-15T00:32:49;15.17;;;5.07;;
12120;SDS011;6124;59.460;17.908;2023-01-15T00:35:17;11.47;;;4.63;;
12120;SDS011;6124;59.460;17.908;2023-01-15T00:37:45;13.10;;;4.67;;
12120;SDS011;6124;59.460;17.908;2023-01-15T00:40:15;12.63;;;5.07;;
12120;SDS011;6124;59.460;17.908;2023-01-15T00:42:43;16.97;;;5.37;;
12120;SDS011;6124;59.460;17.908;2023-01-15T00:45:10;13.07;;;4.60;;
12120;SDS011;6124;59.460;17.908;2023-01-15T00:47:38;11.60;;;4.73;;
12120;SDS011;6124;59.460;17.908;2023-01-15T00:50:07;15.50;;;4.97;;
12120;SDS011;6124;59.460;17.908;2023-01-15T00:52:35;16.73;;;5.17;;
12120;SDS011;6124;59.460;17.908;2023-01-15T00:55:02;12.17;;;4.57;;
12120;SDS011;6124;59.460;17.908;2023-01-15T00:57:31;13.40;;;4.53;;
12120;SDS011;6124;59.460;17.908;2023-01-15T00:59:59;10.23;;;4.20;;
12120;SDS011;6124;59.460;17.908;2023-01-15T01:02:26;9.40;;;3.80;;
12120;SDS011;6124;59.460;17.908;2023-01-15T01:04:53;12.83;;;3.50;;
12120;SDS011;6124;59.460;17.908;2023-01-15T01:07:21;8.33;;;3.40;;
12120;SDS011;6124;59.460;17.908;2023-01-15T01:09:48;7.67;;;2.90;;
12120;SDS011;6124;59.460;17.908;2023-01-15T01:12:15;6.03;;;3.20;;
12120;SDS011;6124;59.460;17.908;2023-01-15T01:14:46;10.73;;;3.40;;
12120;SDS011;6124;59.460;17.908;2023-01-15T01:17:14;8.87;;;3.00;;
12120;SDS011;6124;59.460;17.908;2023-01-15T01:19:41;10.03;;;3.57;;
12120;SDS011;6124;59.460;17.908;2023-01-15T01:22:08;4.43;;;2.37;;
12120;SDS011;6124;59.460;17.908;2023-01-15T01:24:36;8.00;;;3.80;;
12120;SDS011;6124;59.460;17.908;2023-01-15T01:27:03;5.57;;;2.40;;
12120;SDS011;6124;59.460;17.908;2023-01-15T01:29:30;6.30;;;2.67;;
12120;SDS011;6124;59.460;17.908;2023-01-15T01:32:00;4.70;;;2.47;;
12120;SDS011;6124;59.460;17.908;2023-01-15T01:34:27;3.60;;;2.20;;
12120;SDS011;6124;59.460;17.908;2023-01-15T01:36:55;4.23;;;2.10;;
12120;SDS011;6124;59.460;17.908;2023-01-15T01:39:22;6.47;;;2.10;;
12120;SDS011;6124;59.460;17.908;2023-01-15T01:41:49;4.40;;;2.07;;
12120;SDS011;6124;59.460;17.908;2023-01-15T01:47:04;5.37;;;2.27;;
12120;SDS011;6124;59.460;17.908;2023-01-15T01:49:33;7.50;;;2.30;;
12120;SDS011;6124;59.460;17.908;2023-01-15T01:52:01;5.37;;;2.50;;
12120;SDS011;6124;59.460;17.908;2023-01-15T01:54:29;11.33;;;2.63;;
12120;SDS011;6124;59.460;17.908;2023-01-15T01:56:58;4.90;;;2.30;;
12120;SDS011;6124;59.460;17.908;2023-01-15T01:59:26;6.40;;;2.43;;
12120;SDS011;6124;59.460;17.908;2023-01-15T02:01:53;5.07;;;2.30;;
12120;SDS011;6124;59.460;17.908;2023-01-15T02:04:22;8.67;;;2.30;;
12120;SDS011;6124;59.460;17.908;2023-01-15T02:06:51;6.43;;;2.40;;
12120;SDS011;6124;59.460;17.908;2023-01-15T02:09:19;6.43;;;2.47;;
12120;SDS011;6124;59.460;17.908;2023-01-15T02:11:46;4.87;;;2.07;;
12120;SDS011;6124;59.460;17.908;2023-01-15T02:14:15;4.63;;;1.83;;
12120;SDS011;6124;59.460;17.908;2023-01-15T02:16:44;5.77;;;1.90;;
12120;SDS011;6124;59.460;17.908;2023-01-15T02:19:15;6.23;;;2.47;;
12120;SDS011;6124;59.460;17.908;2023-01-15T02:21:47;4.30;;;2.10;;
12120;SDS011;6124;59.460;17.908;2023-01-15T02:24:20;6.10;;;2.23;;
12120;SDS011;6124;59.460;17.908;2023-01-15T02:27:01;4.97;;;2.27;;
12120;SDS011;6124;59.460;17.908;2023-01-15T02:29:32;2.93;;;1.97;;
12120;SDS011;6124;59.460;17.908;2023-01-15T02:32:01;3.97;;;2.00;;
12120;SDS011;6124;59.460;17.908;2023-01-15T02:34:30;5.23;;;2.27;;
12120;SDS011;6124;59.460;17.908;2023-01-15T02:37:01;2.93;;;1.53;;
12120;SDS011;6124;59.460;17.908;2023-01-15T02:39:29;3.53;;;2.00;;
12120;SDS011;6124;59.460;17.908;2023-01-15T02:41:59;3.33;;;1.90;;
12120;SDS011;6124;59.460;17.908;2023-01-15T02:44:29;2.67;;;1.67;;
12120;SDS011;6124;59.460;17.908;2023-01-15T02:46:57;4.67;;;2.00;;
12120;SDS011;6124;59.460;17.908;2023-01-15T02:49:25;5.10;;;1.70;;
12120;SDS011;6124;59.460;17.908;2023-01-15T02:51:53;2.77;;;1.87;;
12120;SDS011;6124;59.460;17.908;2023-01-15T02:54:22;3.27;;;1.60;;
12120;SDS011;6124;59.460;17.908;2023-01-15T02:56:49;4.07;;;1.70;;
12120;SDS011;6124;59.460;17.908;2023-01-15T02:59:18;2.63;;;1.70;;
12120;SDS011;6124;59.460;17.908;2023-01-15T03:01:49;3.23;;;1.60;;
12120;SDS011;6124;59.460;17.908;2023-01-15T03:04:18;3.63;;;1.63;;
12120;SDS011;6124;59.460;17.908;2023-01-15T03:06:48;3.10;;;1.50;;
12120;SDS011;6124;59.460;17.908;2023-01-15T03:09:16;2.67;;;1.57;;
12120;SDS011;6124;59.460;17.908;2023-01-15T03:11:45;2.47;;;1.33;;
12120;SDS011;6124;59.460;17.908;2023-01-15T03:14:14;2.23;;;1.50;;
12120;SDS011;6124;59.460;17.908;2023-01-15T03:16:43;2.20;;;1.37;;
12120;SDS011;6124;59.460;17.908;2023-01-15T03:19:13;2.97;;;1.80;;
12120;SDS011;6124;59.460;17.908;2023-01-15T03:21:44;2.57;;;1.43;;
12120;SDS011;6124;59.460;17.908;2023-01-15T03:24:13;2.97;;;1.30;;
12120;SDS011;6124;59.460;17.908;2023-01-15T03:26:41;4.13;;;1.70;;
12120;SDS011;6124;59.460;17.908;2023-01-15T03:29:08;3.07;;;1.30;;
12120;SDS011;6124;59.460;17.908;2023-01-15T03:31:37;2.20;;;1.20;;
12120;SDS011;6124;59.460;17.908;2023-01-15T03:34:05;2.23;;;1.30;;
12120;SDS011;6124;59.460;17.908;2023-01-15T03:36:33;3.10;;;1.70;;
12120;SDS011;6124;59.460;17.908;2023-01-15T03:39:01;2.53;;;1.60;;
12120;SDS011;6124;59.460;17.908;2023-01-15T03:41:29;2.23;;;1.13;;
12120;SDS011;6124;59.460;17.908;2023-01-15T03:44:03;3.07;;;2.03;;
12120;SDS011;6124;59.460;17.908;2023-01-15T03:46:44;2.37;;;1.47;;
12120;SDS011;6124;59.460;17.908;2023-01-15T03:49:16;2.57;;;1.30;;
12120;SDS011;6124;59.460;17.908;2023-01-15T03:51:48;3.73;;;1.30;;
12120;SDS011;6124;59.460;17.908;2023-01-15T03:54:21;2.17;;;1.30;;
12120;SDS011;6124;59.460;17.908;2023-01-15T03:56:50;3.03;;;1.30;;
12120;SDS011;6124;59.460;17.908;2023-01-15T03:59:20;2.63;;;1.57;;
12120;SDS011;6124;59.460;17.908;2023-01-15T04:01:49;2.17;;;1.23;;
12120;SDS011;6124;59.460;17.908;2023-01-15T04:04:18;3.50;;;1.70;;
12120;SDS011;6124;59.460;17.908;2023-01-15T04:06:45;4.97;;;1.83;;
12120;SDS011;6124;59.460;17.908;2023-01-15T04:09:14;3.07;;;1.40;;
12120;SDS011;6124;59.460;17.908;2023-01-15T04:11:41;1.73;;;1.30;;
12120;SDS011;6124;59.460;17.908;2023-01-15T04:14:09;2.73;;;1.17;;
12120;SDS011;6124;59.460;17.908;2023-01-15T04:16:39;2.63;;;1.40;;
12120;SDS011;6124;59.460;17.908;2023-01-15T04:19:06;2.20;;;1.57;;
12120;SDS011;6124;59.460;17.908;2023-01-15T04:21:33;2.67;;;1.37;;
12120;SDS011;6124;59.460;17.908;2023-01-15T04:24:00;2.10;;;1.17;;
12120;SDS011;6124;59.460;17.908;2023-01-15T04:26:29;2.57;;;1.33;;
12120;SDS011;6124;59.460;17.908;2023-01-15T04:28:56;2.93;;;1.30;;
12120;SDS011;6124;59.460;17.908;2023-01-15T04:31:24;3.27;;;1.50;;
12120;SDS011;6124;59.460;17.908;2023-01-15T04:33:52;4.77;;;1.40;;
12120;SDS011;6124;59.460;17.908;2023-01-15T04:36:19;1.97;;;1.10;;
12120;SDS011;6124;59.460;17.908;2023-01-15T04:38:47;4.37;;;1.50;;
12120;SDS011;6124;59.460;17.908;2023-01-15T04:41:14;3.10;;;1.13;;
12120;SDS011;6124;59.460;17.908;2023-01-15T04:44:12;1.83;;;0.80;;
12120;SDS011;6124;59.460;17.908;2023-01-15T04:46:39;1.77;;;1.00;;
12120;SDS011;6124;59.460;17.908;2023-01-15T04:49:07;2.50;;;0.80;;
12120;SDS011;6124;59.460;17.908;2023-01-15T04:51:35;2.07;;;0.97;;
12120;SDS011;6124;59.460;17.908;2023-01-15T04:54:03;3.00;;;1.20;;
12120;SDS011;6124;59.460;17.908;2023-01-15T04:56:31;3.60;;;1.40;;
12120;SDS011;6124;59.460;17.908;2023-01-15T04:58:59;1.90;;;1.10;;
12120;SDS011;6124;59.460;17.908;2023-01-15T05:01:28;3.73;;;1.20;;
12120;SDS011;6124;59.460;17.908;2023-01-15T05:03:55;3.47;;;1.40;;
12120;SDS011;6124;59.460;17.908;2023-01-15T05:06:23;1.97;;;1.00;;
12120;SDS011;6124;59.460;17.908;2023-01-15T05:08:51;3.93;;;1.10;;
12120;SDS011;6124;59.460;17.908;2023-01-15T05:11:18;3.67;;;1.40;;
12120;SDS011;6124;59.460;17.908;2023-01-15T05:13:45;1.53;;;1.00;;
12120;SDS011;6124;59.460;17.908;2023-01-15T05:16:14;1.67;;;1.17;;
12120;SDS011;6124;59.460;17.908;2023-01-15T05:18:43;1.40;;;1.00;;
12120;SDS011;6124;59.460;17.908;2023-01-15T05:21:14;3.87;;;1.13;;
12120;SDS011;6124;59.460;17.908;2023-01-15T05:23:42;1.13;;;1.00;;
12120;SDS011;6124;59.460;17.908;2023-01-15T05:26:10;5.07;;;1.17;;
12120;SDS011;6124;59.460;17.908;2023-01-15T05:28:37;3.03;;;0.97;;
12120;SDS011;6124;59.460;17.908;2023-01-15T05:31:05;2.13;;;0.87;;
12120;SDS011;6124;59.460;17.908;2023-01-15T05:33:33;1.67;;;0.90;;
12120;SDS011;6124;59.460;17.908;2023-01-15T05:36:03;2.47;;;1.20;;
12120;SDS011;6124;59.460;17.908;2023-01-15T05:38:30;1.63;;;0.97;;
12120;SDS011;6124;59.460;17.908;2023-01-15T05:40:58;2.03;;;0.93;;
12120;SDS011;6124;59.460;17.908;2023-01-15T05:43:26;1.10;;;0.80;;
12120;SDS011;6124;59.460;17.908;2023-01-15T05:45:53;4.17;;;1.10;;
12120;SDS011;6124;59.460;17.908;2023-01-15T05:48:20;7.60;;;6.80;;
12120;SDS011;6124;59.460;17.908;2023-01-15T05:50:47;2.47;;;1.73;;
12120;SDS011;6124;59.460;17.908;2023-01-15T05:53:16;2.90;;;1.10;;
12120;SDS011;6124;59.460;17.908;2023-01-15T05:55:43;1.40;;;0.90;;
12120;SDS011;6124;59.460;17.908;2023-01-15T05:58:11;2.33;;;1.03;;
12120;SDS011;6124;59.460;17.908;2023-01-15T06:00:38;3.03;;;1.00;;
12120;SDS011;6124;59.460;17.908;2023-01-15T06:03:06;2.60;;;0.90;;
12120;SDS011;6124;59.460;17.908;2023-01-15T06:05:33;1.77;;;0.87;;
12120;SDS011;6124;59.460;17.908;2023-01-15T06:08:00;0.83;;;0.70;;
12120;SDS011;6124;59.460;17.908;2023-01-15T06:10:29;1.30;;;0.80;;
12120;SDS011;6124;59.460;17.908;2023-01-15T06:12:56;2.63;;;0.70;;
12120;SDS011;6124;59.460;17.908;2023-01-15T06:15:24;2.03;;;0.60;;
12120;SDS011;6124;59.460;17.908;2023-01-15T06:17:51;0.90;;;0.70;;
12120;SDS011;6124;59.460;17.908;2023-01-15T06:20:18;0.63;;;0.63;;
12120;SDS011;6124;59.460;17.908;2023-01-15T06:22:47;1.03;;;0.77;;
12120;SDS011;6124;59.460;17.908;2023-01-15T06:25:15;1.00;;;0.40;;
12120;SDS011;6124;59.460;17.908;2023-01-15T06:27:43;0.70;;;0.50;;
12120;SDS011;6124;59.460;17.908;2023-01-15T06:30:13;1.93;;;0.60;;
12120;SDS011;6124;59.460;17.908;2023-01-15T06:32:41;0.93;;;0.50;;
12120;SDS011;6124;59.460;17.908;2023-01-15T06:35:08;1.10;;;0.63;;
12120;SDS011;6124;59.460;17.908;2023-01-15T06:37:36;1.53;;;0.80;;
12120;SDS011;6124;59.460;17.908;2023-01-15T06:40:04;0.57;;;0.50;;
12120;SDS011;6124;59.460;17.908;2023-01-15T06:42:31;1.10;;;0.70;;
12120;SDS011;6124;59.460;17.908;2023-01-15T06:45:18;1.23;;;0.77;;
12120;SDS011;6124;59.460;17.908;2023-01-15T06:48:03;2.60;;;0.60;;
12120;SDS011;6124;59.460;17.908;2023-01-15T06:50:30;0.80;;;0.60;;
12120;SDS011;6124;59.460;17.908;2023-01-15T06:52:58;0.57;;;0.40;;
12120;SDS011;6124;59.460;17.908;2023-01-15T06:55:25;1.33;;;0.87;;
12120;SDS011;6124;59.460;17.908;2023-01-15T06:57:52;0.93;;;0.60;;
12120;SDS011;6124;59.460;17.908;2023-01-15T07:00:21;1.80;;;0.80;;
12120;SDS011;6124;59.460;17.908;2023-01-15T07:02:49;1.60;;;0.80;;
12120;SDS011;6124;59.460;17.908;2023-01-15T07:05:16;1.27;;;0.80;;
12120;SDS011;6124;59.460;17.908;2023-01-15T07:07:43;2.30;;;0.97;;
12120;SDS011;6124;59.460;17.908;2023-01-15T07:10:11;4.00;;;0.90;;
12120;SDS011;6124;59.460;17.908;2023-01-15T07:12:38;2.90;;;0.73;;
12120;SDS011;6124;59.460;17.908;2023-01-15T07:15:06;2.23;;;0.87;;
12120;SDS011;6124;59.460;17.908;2023-01-15T07:17:35;4.33;;;1.00;;
12120;SDS011;6124;59.460;17.908;2023-01-15T07:20:03;3.00;;;1.10;;
12120;SDS011;6124;59.460;17.908;2023-01-15T07:22:30;1.63;;;0.90;;
12120;SDS011;6124;59.460;17.908;2023-01-15T07:24:58;4.93;;;1.00;;
12120;SDS011;6124;59.460;17.908;2023-01-15T07:27:25;3.63;;;1.00;;
12120;SDS011;6124;59.460;17.908;2023-01-15T07:29:53;5.87;;;2.57;;
12120;SDS011;6124;59.460;17.908;2023-01-15T07:32:20;6.07;;;3.30;;
12120;SDS011;6124;59.460;17.908;2023-01-15T07:34:49;4.90;;;1.60;;
12120;SDS011;6124;59.460;17.908;2023-01-15T07:37:16;4.93;;;1.00;;
12120;SDS011;6124;59.460;17.908;2023-01-15T07:39:43;7.97;;;1.50;;
12120;SDS011;6124;59.460;17.908;2023-01-15T07:42:11;5.83;;;1.70;;
12120;SDS011;6124;59.460;17.908;2023-01-15T07:44:56;5.43;;;1.30;;
12120;SDS011;6124;59.460;17.908;2023-01-15T07:47:41;5.33;;;1.67;;
12120;SDS011;6124;59.460;17.908;2023-01-15T07:50:27;6.80;;;3.40;;
12120;SDS011;6124;59.460;17.908;2023-01-15T07:52:55;5.17;;;2.07;;
12120;SDS011;6124;59.460;17.908;2023-01-15T07:55:22;4.97;;;1.77;;
12120;SDS011;6124;59.460;17.908;2023-01-15T07:57:50;12.17;;;5.77;;
12120;SDS011;6124;59.460;17.908;2023-01-15T08:00:19;4.53;;;1.80;;
12120;SDS011;6124;59.460;17.908;2023-01-15T08:02:46;9.00;;;4.33;;
12120;SDS011;6124;59.460;17.908;2023-01-15T08:05:14;10.07;;;3.07;;
12120;SDS011;6124;59.460;17.908;2023-01-15T08:07:44;8.90;;;3.30;;
12120;SDS011;6124;59.460;17.908;2023-01-15T08:10:12;11.93;;;3.30;;
12120;SDS011;6124;59.460;17.908;2023-01-15T08:12:39;10.77;;;4.20;;
12120;SDS011;6124;59.460;17.908;2023-01-15T08:15:25;7.63;;;3.07;;
12120;SDS011;6124;59.460;17.908;2023-01-15T08:17:52;10.03;;;5.03;;
12120;SDS011;6124;59.460;17.908;2023-01-15T08:20:20;9.27;;;3.73;;
12120;SDS011;6124;59.460;17.908;2023-01-15T08:22:50;6.97;;;2.40;;
12120;SDS011;6124;59.460;17.908;2023-01-15T08:25:18;6.87;;;2.60;;
12120;SDS011;6124;59.460;17.908;2023-01-15T08:27:46;8.80;;;2.60;;
12120;SDS011;6124;59.460;17.908;2023-01-15T08:30:14;7.60;;;3.20;;
12120;SDS011;6124;59.460;17.908;2023-01-15T08:32:42;10.53;;;2.73;;
12120;SDS011;6124;59.460;17.908;2023-01-15T08:35:10;8.57;;;2.90;;
12120;SDS011;6124;59.460;17.908;2023-01-15T08:37:37;4.23;;;2.30;;
12120;SDS011;6124;59.460;17.908;2023-01-15T08:40:07;3.07;;;1.90;;
12120;SDS011;6124;59.460;17.908;2023-01-15T08:42:35;6.47;;;1.50;;
12120;SDS011;6124;59.460;17.908;2023-01-15T08:45:03;5.27;;;1.83;;
12120;SDS011;6124;59.460;17.908;2023-01-15T08:47:30;3.30;;;1.33;;
12120;SDS011;6124;59.460;17.908;2023-01-15T08:49:57;4.07;;;1.43;;
12120;SDS011;6124;59.460;17.908;2023-01-15T08:52:25;5.20;;;1.50;;
12120;SDS011;6124;59.460;17.908;2023-01-15T08:54:52;4.10;;;1.10;;
12120;SDS011;6124;59.460;17.908;2023-01-15T08:57:21;6.70;;;1.77;;
12120;SDS011;6124;59.460;17.908;2023-01-15T08:59:48;5.07;;;1.73;;
12120;SDS011;6124;59.460;17.908;2023-01-15T09:02:16;5.17;;;1.70;;
12120;SDS011;6124;59.460;17.908;2023-01-15T09:04:43;6.50;;;2.17;;
12120;SDS011;6124;59.460;17.908;2023-01-15T09:07:11;9.90;;;1.63;;
12120;SDS011;6124;59.460;17.908;2023-01-15T09:09:38;5.67;;;2.20;;
12120;SDS011;6124;59.460;17.908;2023-01-15T09:12:06;5.77;;;1.93;;
12120;SDS011;6124;59.460;17.908;2023-01-15T09:14:34;6.83;;;1.80;;
12120;SDS011;6124;59.460;17.908;2023-01-15T09:17:02;8.03;;;2.83;;
12120;SDS011;6124;59.460;17.908;2023-01-15T09:19:29;7.23;;;2.17;;
12120;SDS011;6124;59.460;17.908;2023-01-15T09:21:56;6.07;;;1.53;;
12120;SDS011;6124;59.460;17.908;2023-01-15T09:24:24;7.03;;;2.40;;
12120;SDS011;6124;59.460;17.908;2023-01-15T09:26:51;7.73;;;2.70;;
12120;SDS011;6124;59.460;17.908;2023-01-15T09:29:18;6.20;;;1.60;;
12120;SDS011;6124;59.460;17.908;2023-01-15T09:31:47;7.17;;;2.07;;
12120;SDS011;6124;59.460;17.908;2023-01-15T09:34:14;7.57;;;1.80;;
12120;SDS011;6124;59.460;17.908;2023-01-15T09:36:43;6.60;;;1.33;;
12120;SDS011;6124;59.460;17.908;2023-01-15T09:39:11;6.83;;;2.63;;
12120;SDS011;6124;59.460;17.908;2023-01-15T09:41:50;7.80;;;2.60;;
12120;SDS011;6124;59.460;17.908;2023-01-15T09:44:38;8.03;;;1.93;;
12120;SDS011;6124;59.460;17.908;2023-01-15T09:47:10;11.47;;;3.60;;
12120;SDS011;6124;59.460;17.908;2023-01-15T09:49:42;8.33;;;2.93;;
12120;SDS011;6124;59.460;17.908;2023-01-15T09:52:18;7.43;;;1.90;;
12120;SDS011;6124;59.460;17.908;2023-01-15T09:54:52;7.40;;;2.00;;
12120;SDS011;6124;59.460;17.908;2023-01-15T09:57:23;6.60;;;1.60;;
12120;SDS011;6124;59.460;17.908;2023-01-15T09:59:51;4.93;;;1.70;;
12120;SDS011;6124;59.460;17.908;2023-01-15T10:02:28;8.00;;;1.60;;
12120;SDS011;6124;59.460;17.908;2023-01-15T10:04:56;6.83;;;2.20;;
12120;SDS011;6124;59.460;17.908;2023-01-15T10:07:26;11.30;;;3.70;;
12120;SDS011;6124;59.460;17.908;2023-01-15T10:09:56;13.40;;;3.53;;
12120;SDS011;6124;59.460;17.908;2023-01-15T10:12:25;4.33;;;1.63;;
12120;SDS011;6124;59.460;17.908;2023-01-15T10:15:06;6.27;;;1.80;;
12120;SDS011;6124;59.460;17.908;2023-01-15T10:17:38;7.73;;;1.77;;
12120;SDS011;6124;59.460;17.908;2023-01-15T10:20:11;9.67;;;2.37;;
12120;SDS011;6124;59.460;17.908;2023-01-15T10:22:43;8.23;;;2.33;;
12120;SDS011;6124;59.460;17.908;2023-01-15T10:25:14;9.50;;;1.93;;
12120;SDS011;6124;59.460;17.908;2023-01-15T10:27:43;7.73;;;2.63;;
12120;SDS011;6124;59.460;17.908;2023-01-15T10:30:14;6.57;;;2.53;;
12120;SDS011;6124;59.460;17.908;2023-01-15T10:32:44;5.03;;;1.70;;
12120;SDS011;6124;59.460;17.908;2023-01-15T10:35:20;12.30;;;2.40;;
12120;SDS011;6124;59.460;17.908;2023-01-15T10:37:50;6.90;;;1.87;;
12120;SDS011;6124;59.460;17.908;2023-01-15T10:40:27;6.40;;;1.70;;
12120;SDS011;6124;59.460;17.908;2023-01-15T10:42:59;5.07;;;1.50;;
12120;SDS011;6124;59.460;17.908;2023-01-15T10:45:27;4.93;;;1.80;;
12120;SDS011;6124;59.460;17.908;2023-01-15T10:47:59;7.53;;;1.77;;
12120;SDS011;6124;59.460;17.908;2023-01-15T10:50:27;7.23;;;2.37;;
12120;SDS011;6124;59.460;17.908;2023-01-15T10:52:59;9.93;;;2.27;;
12120;SDS011;6124;59.460;17.908;2023-01-15T10:55:31;11.30;;;2.87;;
12120;SDS011;6124;59.460;17.908;2023-01-15T10:58:02;11.73;;;1.97;;
12120;SDS011;6124;59.460;17.908;2023-01-15T11:00:31;8.00;;;1.97;;
12120;SDS011;6124;59.460;17.908;2023-01-15T11:03:00;9.23;;;2.40;;
12120;SDS011;6124;59.460;17.908;2023-01-15T11:05:30;5.73;;;1.63;;
12120;SDS011;6124;59.460;17.908;2023-01-15T11:07:58;4.90;;;1.80;;
12120;SDS011;6124;59.460;17.908;2023-01-15T11:10:26;5.57;;;2.00;;
12120;SDS011;6124;59.460;17.908;2023-01-15T11:12:54;5.90;;;2.10;;
12120;SDS011;6124;59.460;17.908;2023-01-15T11:15:43;9.20;;;1.80;;
12120;SDS011;6124;59.460;17.908;2023-01-15T11:18:30;6.90;;;1.73;;
12120;SDS011;6124;59.460;17.908;2023-01-15T11:21:18;10.50;;;1.93;;
12120;SDS011;6124;59.460;17.908;2023-01-15T11:23:46;9.63;;;2.30;;
12120;SDS011;6124;59.460;17.908;2023-01-15T11:26:15;7.83;;;1.87;;
12120;SDS011;6124;59.460;17.908;2023-01-15T11:28:44;8.10;;;2.20;;
12120;SDS011;6124;59.460;17.908;2023-01-15T11:31:12;5.80;;;1.90;;
12120;SDS011;6124;59.460;17.908;2023-01-15T11:33:43;9.60;;;2.30;;
12120;SDS011;6124;59.460;17.908;2023-01-15T11:36:21;10.57;;;2.07;;
12120;SDS011;6124;59.460;17.908;2023-01-15T11:38:49;5.33;;;2.20;;
12120;SDS011;6124;59.460;17.908;2023-01-15T11:41:19;11.40;;;2.23;;
12120;SDS011;6124;59.460;17.908;2023-01-15T11:43:52;6.43;;;1.93;;
12120;SDS011;6124;59.460;17.908;2023-01-15T11:46:38;8.47;;;1.93;;
12120;SDS011;6124;59.460;17.908;2023-01-15T11:49:23;9.23;;;1.97;;
12120;SDS011;6124;59.460;17.908;2023-01-15T11:52:09;7.10;;;2.30;;
12120;SDS011;6124;59.460;17.908;2023-01-15T11:54:38;9.77;;;2.17;;
12120;SDS011;6124;59.460;17.908;2023-01-15T11:57:05;5.73;;;2.07;;
12120;SDS011;6124;59.460;17.908;2023-01-15T11:59:33;9.90;;;2.20;;
12120;SDS011;6124;59.460;17.908;2023-01-15T12:02:01;11.33;;;2.13;;
12120;SDS011;6124;59.460;17.908;2023-01-15T12:04:35;7.77;;;2.27;;
12120;SDS011;6124;59.460;17.908;2023-01-15T12:07:03;5.87;;;1.60;;
12120;SDS011;6124;59.460;17.908;2023-01-15T12:09:37;10.63;;;2.57;;
12120;SDS011;6124;59.460;17.908;2023-01-15T12:12:09;11.33;;;2.03;;
12120;SDS011;6124;59.460;17.908;2023-01-15T12:17:37;7.83;;;2.60;;
12120;SDS011;6124;59.460;17.908;2023-01-15T12:20:13;11.17;;;2.43;;
12120;SDS011;6124;59.460;17.908;2023-01-15T12:22:47;9.83;;;1.93;;
12120;SDS011;6124;59.460;17.908;2023-01-15T12:25:19;11.30;;;2.53;;
12120;SDS011;6124;59.460;17.908;2023-01-15T12:27:54;8.00;;;2.77;;
12120;SDS011;6124;59.460;17.908;2023-01-15T12:30:25;10.07;;;2.30;;
12120;SDS011;6124;59.460;17.908;2023-01-15T12:32:55;9.83;;;2.27;;
12120;SDS011;6124;59.460;17.908;2023-01-15T12:35:31;6.97;;;2.30;;
12120;SDS011;6124;59.460;17.908;2023-01-15T12:38:01;8.67;;;2.00;;
12120;SDS011;6124;59.460;17.908;2023-01-15T12:40:32;8.97;;;2.00;;
12120;SDS011;6124;59.460;17.908;2023-01-15T12:43:07;10.10;;;2.23;;
12120;SDS011;6124;59.460;17.908;2023-01-15T12:45:56;12.07;;;2.17;;
12120;SDS011;6124;59.460;17.908;2023-01-15T12:48:26;8.47;;;1.90;;
12120;SDS011;6124;59.460;17.908;2023-01-15T12:50:58;6.80;;;2.07;;
12120;SDS011;6124;59.460;17.908;2023-01-15T12:53:29;9.47;;;2.23;;
12120;SDS011;6124;59.460;17.908;2023-01-15T12:55:59;8.37;;;2.37;;
12120;SDS011;6124;59.460;17.908;2023-01-15T12:58:30;8.27;;;2.20;;
12120;SDS011;6124;59.460;17.908;2023-01-15T13:01:02;10.37;;;2.20;;
12120;SDS011;6124;59.460;17.908;2023-01-15T13:03:31;11.23;;;2.10;;
12120;SDS011;6124;59.460;17.908;2023-01-15T13:06:03;12.67;;;2.47;;
12120;SDS011;6124;59.460;17.908;2023-01-15T13:08:34;9.27;;;2.17;;
12120;SDS011;6124;59.460;17.908;2023-01-15T13:11:04;6.37;;;1.90;;
12120;SDS011;6124;59.460;17.908;2023-01-15T13:13:32;13.90;;;2.60;;
12120;SDS011;6124;59.460;17.908;2023-01-15T13:16:08;8.70;;;2.57;;
12120;SDS011;6124;59.460;17.908;2023-01-15T13:18:41;7.10;;;1.80;;
12120;SDS011;6124;59.460;17.908;2023-01-15T13:21:14;10.50;;;2.73;;
12120;SDS011;6124;59.460;17.908;2023-01-15T13:26:30;7.20;;;2.27;;
12120;SDS011;6124;59.460;17.908;2023-01-15T13:29:07;9.17;;;2.03;;
12120;SDS011;6124;59.460;17.908;2023-01-15T13:31:41;12.60;;;2.47;;
12120;SDS011;6124;59.460;17.908;2023-01-15T13:34:12;6.17;;;2.03;;
12120;SDS011;6124;59.460;17.908;2023-01-15T13:36:45;9.63;;;2.30;;
12120;SDS011;6124;59.460;17.908;2023-01-15T13:39:14;8.73;;;2.30;;
12120;SDS011;6124;59.460;17.908;2023-01-15T13:41:42;5.03;;;2.40;;
12120;SDS011;6124;59.460;17.908;2023-01-15T13:44:31;7.93;;;2.17;;
12120;SDS011;6124;59.460;17.908;2023-01-15T13:47:01;9.63;;;2.20;;
12120;SDS011;6124;59.460;17.908;2023-01-15T13:49:31;9.83;;;2.53;;
12120;SDS011;6124;59.460;17.908;2023-01-15T13:52:02;11.03;;;3.07;;
12120;SDS011;6124;59.460;17.908;2023-01-15T13:54:31;7.17;;;2.00;;
12120;SDS011;6124;59.460;17.908;2023-01-15T13:57:06;6.23;;;1.87;;
12120;SDS011;6124;59.460;17.908;2023-01-15T13:59:40;9.53;;;2.37;;
12120;SDS011;6124;59.460;17.908;2023-01-15T14:02:24;11.37;;;2.30;;
12120;SDS011;6124;59.460;17.908;2023-01-15T14:04:53;17.50;;;3.00;;
12120;SDS011;6124;59.460;17.908;2023-01-15T14:07:31;7.97;;;2.30;;
12120;SDS011;6124;59.460;17.908;2023-01-15T14:10:08;8.43;;;2.30;;
12120;SDS011;6124;59.460;17.908;2023-01-15T14:12:39;6.03;;;2.27;;
12120;SDS011;6124;59.460;17.908;2023-01-15T14:18:06;8.37;;;2.20;;
12120;SDS011;6124;59.460;17.908;2023-01-15T14:20:48;9.77;;;2.20;;
12120;SDS011;6124;59.460;17.908;2023-01-15T14:23:24;12.43;;;2.40;;
12120;SDS011;6124;59.460;17.908;2023-01-15T14:25:59;10.67;;;2.13;;
12120;SDS011;6124;59.460;17.908;2023-01-15T14:28:33;8.87;;;2.53;;
12120;SDS011;6124;59.460;17.908;2023-01-15T14:33:51;12.23;;;2.20;;
12120;SDS011;6124;59.460;17.908;2023-01-15T14:36:22;6.97;;;2.20;;
12120;SDS011;6124;59.460;17.908;2023-01-15T14:38:54;8.73;;;2.30;;
12120;SDS011;6124;59.460;17.908;2023-01-15T14:41:25;12.30;;;2.77;;
12120;SDS011;6124;59.460;17.908;2023-01-15T14:43:53;8.27;;;1.80;;
12120;SDS011;6124;59.460;17.908;2023-01-15T14:46:23;9.33;;;2.20;;
12120;SDS011;6124;59.460;17.908;2023-01-15T14:48:52;8.60;;;2.37;;
12120;SDS011;6124;59.460;17.908;2023-01-15T14:51:21;10.17;;;2.83;;
12120;SDS011;6124;59.460;17.908;2023-01-15T14:53:49;8.87;;;2.20;;
12120;SDS011;6124;59.460;17.908;2023-01-15T14:56:21;8.70;;;2.10;;
12120;SDS011;6124;59.460;17.908;2023-01-15T14:58:51;14.67;;;3.03;;
12120;SDS011;6124;59.460;17.908;2023-01-15T15:01:30;6.13;;;2.20;;
12120;SDS011;6124;59.460;17.908;2023-01-15T15:04:00;10.23;;;2.20;;
12120;SDS011;6124;59.460;17.908;2023-01-15T15:06:31;9.97;;;2.60;;
12120;SDS011;6124;59.460;17.908;2023-01-15T15:09:00;8.27;;;2.00;;
12120;SDS011;6124;59.460;17.908;2023-01-15T15:11:34;7.00;;;2.20;;
12120;SDS011;6124;59.460;17.908;2023-01-15T15:14:20;9.67;;;2.03;;
12120;SDS011;6124;59.460;17.908;2023-01-15T15:16:49;11.73;;;2.40;;